sensor_id;sensor_type;location;lat;lon;timestamp;temperature;humidity
64939;DHT22;51453;47.738;7.420;2022-08-04T00:01:02;21.40;99.90
64939;DHT22;51453;47.738;7.420;2022-08-04T00:03:58;21.40;99.90
64939;DHT22;51453;47.738;7.420;2022-08-04T00:09:16;21.20;99.90
64939;DHT22;51453;47.738;7.420;2022-08-04T00:11:48;21.20;99.90
64939;DHT22;51453;47.738;7.420;2022-08-04T00:14:15;21.10;99.90
64939;DHT22;51453;47.738;7.420;2022-08-04T00:16:42;21.10;99.90
64939;DHT22;51453;47.738;7.420;2022-08-04T00:19:16;21.00;99.90
64939;DHT22;51453;47.738;7.420;2022-08-04T00:21:50;21.00;99.90
64939;DHT22;51453;47.738;7.420;2022-08-04T00:24:17;21.00;99.90
64939;DHT22;51453;47.738;7.420;2022-08-04T00:26:45;21.00;99.90
64939;DHT22;51453;47.738;7.420;2022-08-04T00:29:11;20.90;99.90
64939;DHT22;51453;47.738;7.420;2022-08-04T00:31:37;20.80;99.90
64939;DHT22;51453;47.738;7.420;2022-08-04T00:34:06;20.80;99.90
64939;DHT22;51453;47.738;7.420;2022-08-04T00:36:34;20.80;99.90
64939;DHT22;51453;47.738;7.420;2022-08-04T00:39:00;20.70;99.90
64939;DHT22;51453;47.738;7.420;2022-08-04T00:41:54;20.70;99.90
64939;DHT22;51453;47.738;7.420;2022-08-04T00:50:23;20.60;99.90
64939;DHT22;51453;47.738;7.420;2022-08-04T00:52:59;20.50;99.90
64939;DHT22;51453;47.738;7.420;2022-08-04T00:55:41;20.50;99.90
64939;DHT22;51453;47.738;7.420;2022-08-04T00:58:29;20.40;99.90
64939;DHT22;51453;47.738;7.420;2022-08-04T01:01:04;20.40;99.90
64939;DHT22;51453;47.738;7.420;2022-08-04T01:06:28;20.30;99.90
64939;DHT22;51453;47.738;7.420;2022-08-04T01:17:23;20.30;99.90
64939;DHT22;51453;47.738;7.420;2022-08-04T01:30:57;20.10;99.90
64939;DHT22;51453;47.738;7.420;2022-08-04T01:33:28;20.10;99.90
64939;DHT22;51453;47.738;7.420;2022-08-04T01:35:56;20.00;99.90
64939;DHT22;51453;47.738;7.420;2022-08-04T01:40:55;20.00;99.90
64939;DHT22;51453;47.738;7.420;2022-08-04T01:43:22;19.90;99.90
64939;DHT22;51453;47.738;7.420;2022-08-04T01:45:50;19.90;99.90
64939;DHT22;51453;47.738;7.420;2022-08-04T01:48:24;19.80;99.90
64939;DHT22;51453;47.738;7.420;2022-08-04T01:50:52;19.80;99.90
64939;DHT22;51453;47.738;7.420;2022-08-04T01:53:22;19.80;99.90
64939;DHT22;51453;47.738;7.420;2022-08-04T01:55:56;19.80;99.90
64939;DHT22;51453;47.738;7.420;2022-08-04T01:58:23;19.70;99.90
64939;DHT22;51453;47.738;7.420;2022-08-04T02:01:04;19.60;99.90
64939;DHT22;51453;47.738;7.420;2022-08-04T02:03:30;19.60;99.90
64939;DHT22;51453;47.738;7.420;2022-08-04T02:09:20;19.40;99.90
64939;DHT22;51453;47.738;7.420;2022-08-04T02:12:24;19.50;99.90
64939;DHT22;51453;47.738;7.420;2022-08-04T02:14:57;19.50;99.90
64939;DHT22;51453;47.738;7.420;2022-08-04T02:17:45;19.50;99.90
64939;DHT22;51453;47.738;7.420;2022-08-04T02:20:24;19.50;99.90
64939;DHT22;51453;47.738;7.420;2022-08-04T02:23:00;19.50;99.90
64939;DHT22;51453;47.738;7.420;2022-08-04T02:25:28;19.50;99.90
64939;DHT22;51453;47.738;7.420;2022-08-04T02:28:07;19.50;99.90
64939;DHT22;51453;47.738;7.420;2022-08-04T02:33:36;19.50;99.90
64939;DHT22;51453;47.738;7.420;2022-08-04T02:36:04;19.50;99.90
64939;DHT22;51453;47.738;7.420;2022-08-04T02:38:54;19.40;99.90
64939;DHT22;51453;47.738;7.420;2022-08-04T02:41:22;19.40;99.90
64939;DHT22;51453;47.738;7.420;2022-08-04T02:43:49;19.40;99.90
64939;DHT22;51453;47.738;7.420;2022-08-04T02:46:19;19.40;99.90
64939;DHT22;51453;47.738;7.420;2022-08-04T02:48:46;19.30;99.90
64939;DHT22;51453;47.738;7.420;2022-08-04T02:51:13;19.30;99.90
64939;DHT22;51453;47.738;7.420;2022-08-04T02:53:40;19.30;99.90
64939;DHT22;51453;47.738;7.420;2022-08-04T02:56:08;19.30;99.90
64939;DHT22;51453;47.738;7.420;2022-08-04T02:58:35;19.20;99.90
64939;DHT22;51453;47.738;7.420;2022-08-04T03:01:02;19.30;99.90
64939;DHT22;51453;47.738;7.420;2022-08-04T03:09:15;19.30;99.90
64939;DHT22;51453;47.738;7.420;2022-08-04T03:11:55;19.30;99.90
64939;DHT22;51453;47.738;7.420;2022-08-04T03:23:23;19.20;99.90
64939;DHT22;51453;47.738;7.420;2022-08-04T03:34:27;19.10;99.90
64939;DHT22;51453;47.738;7.420;2022-08-04T03:42:50;19.00;99.90
64939;DHT22;51453;47.738;7.420;2022-08-04T03:48:19;18.90;99.90
64939;DHT22;51453;47.738;7.420;2022-08-04T04:00:15;18.80;99.90
64939;DHT22;51453;47.738;7.420;2022-08-04T04:39:51;18.90;99.90
64939;DHT22;51453;47.738;7.420;2022-08-04T04:48:07;19.30;99.90
64939;DHT22;51453;47.738;7.420;2022-08-04T04:58:40;22.90;99.90
64939;DHT22;51453;47.738;7.420;2022-08-04T05:11:50;26.60;99.90
64939;DHT22;51453;47.738;7.420;2022-08-04T05:14:30;27.60;99.90
64939;DHT22;51453;47.738;7.420;2022-08-04T05:17:02;28.50;99.90
64939;DHT22;51453;47.738;7.420;2022-08-04T05:22:15;30.20;99.90
64939;DHT22;51453;47.738;7.420;2022-08-04T05:24:46;30.60;99.90
64939;DHT22;51453;47.738;7.420;2022-08-04T05:27:25;31.40;99.90
64939;DHT22;51453;47.738;7.420;2022-08-04T05:29:58;32.40;99.40
64939;DHT22;51453;47.738;7.420;2022-08-04T05:32:32;32.90;95.00
64939;DHT22;51453;47.738;7.420;2022-08-04T05:35:09;33.30;94.70
64939;DHT22;51453;47.738;7.420;2022-08-04T05:37:37;34.00;92.00
64939;DHT22;51453;47.738;7.420;2022-08-04T05:40:06;34.10;91.00
64939;DHT22;51453;47.738;7.420;2022-08-04T05:42:36;34.30;87.80
64939;DHT22;51453;47.738;7.420;2022-08-04T05:45:03;33.90;87.80
64939;DHT22;51453;47.738;7.420;2022-08-04T05:47:32;33.90;88.70
64939;DHT22;51453;47.738;7.420;2022-08-04T05:50:02;34.30;87.30
64939;DHT22;51453;47.738;7.420;2022-08-04T05:52:34;34.60;83.80
64939;DHT22;51453;47.738;7.420;2022-08-04T05:55:02;34.60;81.80
64939;DHT22;51453;47.738;7.420;2022-08-04T05:57:28;34.80;84.50
64939;DHT22;51453;47.738;7.420;2022-08-04T05:59:57;35.40;80.00
64939;DHT22;51453;47.738;7.420;2022-08-04T06:02:27;35.50;82.20
64939;DHT22;51453;47.738;7.420;2022-08-04T06:04:55;35.40;77.40
64939;DHT22;51453;47.738;7.420;2022-08-04T06:07:22;34.70;79.90
64939;DHT22;51453;47.738;7.420;2022-08-04T06:09:47;34.70;82.00
64939;DHT22;51453;47.738;7.420;2022-08-04T06:12:29;34.50;80.30
64939;DHT22;51453;47.738;7.420;2022-08-04T06:14:57;33.70;84.40
64939;DHT22;51453;47.738;7.420;2022-08-04T06:17:38;32.00;87.70
64939;DHT22;51453;47.738;7.420;2022-08-04T06:20:07;30.40;91.80
64939;DHT22;51453;47.738;7.420;2022-08-04T06:22:34;29.30;93.80
64939;DHT22;51453;47.738;7.420;2022-08-04T06:25:04;28.40;95.20
64939;DHT22;51453;47.738;7.420;2022-08-04T06:27:30;27.80;97.50
64939;DHT22;51453;47.738;7.420;2022-08-04T06:29:59;27.40;99.10
64939;DHT22;51453;47.738;7.420;2022-08-04T06:32:27;27.20;99.90
64939;DHT22;51453;47.738;7.420;2022-08-04T06:35:04;27.00;99.90
64939;DHT22;51453;47.738;7.420;2022-08-04T06:37:31;27.00;99.90
64939;DHT22;51453;47.738;7.420;2022-08-04T06:39:59;26.80;99.90
64939;DHT22;51453;47.738;7.420;2022-08-04T06:42:26;26.70;99.90
64939;DHT22;51453;47.738;7.420;2022-08-04T06:44:55;26.70;99.90
64939;DHT22;51453;47.738;7.420;2022-08-04T06:47:22;26.70;99.90
64939;DHT22;51453;47.738;7.420;2022-08-04T06:49:51;26.70;99.90
64939;DHT22;51453;47.738;7.420;2022-08-04T06:52:18;26.80;99.90
64939;DHT22;51453;47.738;7.420;2022-08-04T06:54:45;26.80;99.90
64939;DHT22;51453;47.738;7.420;2022-08-04T06:57:14;26.90;99.90
64939;DHT22;51453;47.738;7.420;2022-08-04T06:59:46;27.00;99.90
64939;DHT22;51453;47.738;7.420;2022-08-04T07:02:15;27.00;99.90
64939;DHT22;51453;47.738;7.420;2022-08-04T07:04:43;27.10;99.90
64939;DHT22;51453;47.738;7.420;2022-08-04T07:07:10;27.00;99.90
64939;DHT22;51453;47.738;7.420;2022-08-04T07:09:37;27.10;99.90
64939;DHT22;51453;47.738;7.420;2022-08-04T07:12:05;27.20;99.90
64939;DHT22;51453;47.738;7.420;2022-08-04T07:14:32;27.20;99.90
64939;DHT22;51453;47.738;7.420;2022-08-04T07:17:03;27.30;99.90
64939;DHT22;51453;47.738;7.420;2022-08-04T07:19:30;27.40;99.90
64939;DHT22;51453;47.738;7.420;2022-08-04T07:22:01;27.40;99.90
64939;DHT22;51453;47.738;7.420;2022-08-04T07:24:32;27.50;99.90
64939;DHT22;51453;47.738;7.420;2022-08-04T07:26:58;27.50;99.90
64939;DHT22;51453;47.738;7.420;2022-08-04T07:29:24;27.60;99.90
64939;DHT22;51453;47.738;7.420;2022-08-04T07:31:50;27.60;99.90
64939;DHT22;51453;47.738;7.420;2022-08-04T07:34:18;27.70;99.90
64939;DHT22;51453;47.738;7.420;2022-08-04T07:36:45;27.90;99.90
64939;DHT22;51453;47.738;7.420;2022-08-04T07:39:12;28.00;99.90
64939;DHT22;51453;47.738;7.420;2022-08-04T07:41:38;28.10;99.90
64939;DHT22;51453;47.738;7.420;2022-08-04T07:44:07;28.30;99.90
64939;DHT22;51453;47.738;7.420;2022-08-04T07:46:33;28.40;99.90
64939;DHT22;51453;47.738;7.420;2022-08-04T07:49:00;28.40;99.90
64939;DHT22;51453;47.738;7.420;2022-08-04T07:51:26;28.40;99.60
64939;DHT22;51453;47.738;7.420;2022-08-04T07:53:53;28.60;99.80
64939;DHT22;51453;47.738;7.420;2022-08-04T07:56:20;28.70;99.20
64939;DHT22;51453;47.738;7.420;2022-08-04T07:58:46;28.70;99.90
64939;DHT22;51453;47.738;7.420;2022-08-04T08:01:12;28.80;99.20
64939;DHT22;51453;47.738;7.420;2022-08-04T08:03:39;28.80;99.10
64939;DHT22;51453;47.738;7.420;2022-08-04T08:06:06;29.00;98.60
64939;DHT22;51453;47.738;7.420;2022-08-04T08:08:32;29.00;99.90
64939;DHT22;51453;47.738;7.420;2022-08-04T08:10:57;29.10;99.60
64939;DHT22;51453;47.738;7.420;2022-08-04T08:13:23;29.10;99.20
64939;DHT22;51453;47.738;7.420;2022-08-04T08:15:51;29.10;99.60
64939;DHT22;51453;47.738;7.420;2022-08-04T08:18:17;29.30;98.50
64939;DHT22;51453;47.738;7.420;2022-08-04T08:20:44;29.30;97.80
64939;DHT22;51453;47.738;7.420;2022-08-04T08:23:10;29.40;98.90
64939;DHT22;51453;47.738;7.420;2022-08-04T08:25:36;29.50;98.60
64939;DHT22;51453;47.738;7.420;2022-08-04T08:28:05;29.60;98.30
64939;DHT22;51453;47.738;7.420;2022-08-04T08:30:32;29.80;97.60
64939;DHT22;51453;47.738;7.420;2022-08-04T08:33:00;29.80;97.60
64939;DHT22;51453;47.738;7.420;2022-08-04T08:35:28;29.90;97.60
64939;DHT22;51453;47.738;7.420;2022-08-04T08:38:00;30.10;96.90
64939;DHT22;51453;47.738;7.420;2022-08-04T08:44:00;30.30;96.70
64939;DHT22;51453;47.738;7.420;2022-08-04T09:10:37;31.40;92.80
64939;DHT22;51453;47.738;7.420;2022-08-04T09:13:09;31.60;92.70
64939;DHT22;51453;47.738;7.420;2022-08-04T09:15:58;31.70;92.50
64939;DHT22;51453;47.738;7.420;2022-08-04T09:18:46;31.70;90.50
64939;DHT22;51453;47.738;7.420;2022-08-04T09:24:28;31.70;90.80
64939;DHT22;51453;47.738;7.420;2022-08-04T09:27:09;31.60;91.60
64939;DHT22;51453;47.738;7.420;2022-08-04T09:32:22;31.80;89.50
64939;DHT22;51453;47.738;7.420;2022-08-04T09:37:45;32.20;88.80
64939;DHT22;51453;47.738;7.420;2022-08-04T09:40:20;32.20;86.20
64939;DHT22;51453;47.738;7.420;2022-08-04T09:51:44;32.80;83.20
64939;DHT22;51453;47.738;7.420;2022-08-04T10:02:35;33.00;83.10
64939;DHT22;51453;47.738;7.420;2022-08-04T10:05:01;33.20;80.70
64939;DHT22;51453;47.738;7.420;2022-08-04T10:16:32;33.20;78.70
64939;DHT22;51453;47.738;7.420;2022-08-04T10:19:06;33.20;78.10
64939;DHT22;51453;47.738;7.420;2022-08-04T10:27:27;33.30;77.70
64939;DHT22;51453;47.738;7.420;2022-08-04T10:30:03;33.50;78.10
64939;DHT22;51453;47.738;7.420;2022-08-04T10:35:17;33.80;75.00
64939;DHT22;51453;47.738;7.420;2022-08-04T10:38:44;33.60;74.20
64939;DHT22;51453;47.738;7.420;2022-08-04T10:46:31;34.40;73.40
64939;DHT22;51453;47.738;7.420;2022-08-04T10:49:15;34.30;70.90
64939;DHT22;51453;47.738;7.420;2022-08-04T10:52:02;34.20;72.50
64939;DHT22;51453;47.738;7.420;2022-08-04T10:54:43;34.30;71.80
64939;DHT22;51453;47.738;7.420;2022-08-04T10:57:25;34.50;71.50
64939;DHT22;51453;47.738;7.420;2022-08-04T10:59:59;34.70;68.10
64939;DHT22;51453;47.738;7.420;2022-08-04T11:02:54;34.50;69.60
64939;DHT22;51453;47.738;7.420;2022-08-04T11:05:41;34.60;71.30
64939;DHT22;51453;47.738;7.420;2022-08-04T11:08:31;34.70;67.40
64939;DHT22;51453;47.738;7.420;2022-08-04T11:11:08;34.70;67.30
64939;DHT22;51453;47.738;7.420;2022-08-04T11:13:46;34.70;67.80
64939;DHT22;51453;47.738;7.420;2022-08-04T11:16:16;34.90;70.30
64939;DHT22;51453;47.738;7.420;2022-08-04T11:21:29;34.70;70.50
64939;DHT22;51453;47.738;7.420;2022-08-04T11:24:13;34.70;67.60
64939;DHT22;51453;47.738;7.420;2022-08-04T11:26:57;34.80;72.90
64939;DHT22;51453;47.738;7.420;2022-08-04T11:29:25;34.70;71.30
64939;DHT22;51453;47.738;7.420;2022-08-04T11:31:56;34.80;66.20
64939;DHT22;51453;47.738;7.420;2022-08-04T11:34:24;35.00;66.40
64939;DHT22;51453;47.738;7.420;2022-08-04T11:37:22;35.10;66.30
64939;DHT22;51453;47.738;7.420;2022-08-04T11:42:25;35.60;62.90
64939;DHT22;51453;47.738;7.420;2022-08-04T11:45:14;35.60;63.40
64939;DHT22;51453;47.738;7.420;2022-08-04T11:47:49;35.90;63.40
64939;DHT22;51453;47.738;7.420;2022-08-04T11:50:36;36.00;65.00
64939;DHT22;51453;47.738;7.420;2022-08-04T11:53:07;35.90;60.00
64939;DHT22;51453;47.738;7.420;2022-08-04T11:55:34;35.60;62.70
64939;DHT22;51453;47.738;7.420;2022-08-04T11:58:01;35.50;61.70
64939;DHT22;51453;47.738;7.420;2022-08-04T12:00:28;35.60;60.30
64939;DHT22;51453;47.738;7.420;2022-08-04T12:06:19;35.80;60.60
64939;DHT22;51453;47.738;7.420;2022-08-04T12:11:32;35.80;59.80
64939;DHT22;51453;47.738;7.420;2022-08-04T12:17:00;36.00;57.60
64939;DHT22;51453;47.738;7.420;2022-08-04T12:19:54;36.10;59.80
64939;DHT22;51453;47.738;7.420;2022-08-04T12:22:23;36.10;56.50
64939;DHT22;51453;47.738;7.420;2022-08-04T12:24:59;36.00;53.80
64939;DHT22;51453;47.738;7.420;2022-08-04T12:28:04;36.00;55.10
64939;DHT22;51453;47.738;7.420;2022-08-04T12:30:35;35.80;55.90
64939;DHT22;51453;47.738;7.420;2022-08-04T12:33:11;35.60;55.70
64939;DHT22;51453;47.738;7.420;2022-08-04T12:35:54;35.40;59.00
64939;DHT22;51453;47.738;7.420;2022-08-04T12:38:26;35.60;58.50
64939;DHT22;51453;47.738;7.420;2022-08-04T12:40:58;35.60;57.90
64939;DHT22;51453;47.738;7.420;2022-08-04T12:43:38;35.60;56.30
64939;DHT22;51453;47.738;7.420;2022-08-04T12:46:12;35.60;61.60
64939;DHT22;51453;47.738;7.420;2022-08-04T12:48:44;35.80;57.50
64939;DHT22;51453;47.738;7.420;2022-08-04T12:51:11;35.90;59.00
64939;DHT22;51453;47.738;7.420;2022-08-04T12:53:42;35.80;58.50
64939;DHT22;51453;47.738;7.420;2022-08-04T12:56:11;35.70;55.90
64939;DHT22;51453;47.738;7.420;2022-08-04T12:58:43;35.70;57.30
64939;DHT22;51453;47.738;7.420;2022-08-04T13:01:28;35.80;58.60
64939;DHT22;51453;47.738;7.420;2022-08-04T13:03:55;35.70;56.50
64939;DHT22;51453;47.738;7.420;2022-08-04T13:06:31;35.80;57.30
64939;DHT22;51453;47.738;7.420;2022-08-04T13:09:15;36.00;56.30
64939;DHT22;51453;47.738;7.420;2022-08-04T13:11:49;36.00;57.40
64939;DHT22;51453;47.738;7.420;2022-08-04T13:14:17;35.90;54.10
64939;DHT22;51453;47.738;7.420;2022-08-04T13:16:43;35.90;54.70
64939;DHT22;51453;47.738;7.420;2022-08-04T13:19:09;35.80;56.10
64939;DHT22;51453;47.738;7.420;2022-08-04T13:21:41;35.90;55.90
64939;DHT22;51453;47.738;7.420;2022-08-04T13:24:11;36.10;55.10
64939;DHT22;51453;47.738;7.420;2022-08-04T13:29:16;36.20;55.50
64939;DHT22;51453;47.738;7.420;2022-08-04T13:31:44;36.10;54.00
64939;DHT22;51453;47.738;7.420;2022-08-04T13:34:10;35.90;55.20
64939;DHT22;51453;47.738;7.420;2022-08-04T13:36:36;36.00;54.60
64939;DHT22;51453;47.738;7.420;2022-08-04T13:39:07;36.00;55.00
64939;DHT22;51453;47.738;7.420;2022-08-04T13:41:36;36.00;56.80
64939;DHT22;51453;47.738;7.420;2022-08-04T13:44:05;35.90;55.60
64939;DHT22;51453;47.738;7.420;2022-08-04T13:46:44;35.90;53.00
64939;DHT22;51453;47.738;7.420;2022-08-04T13:49:15;35.90;53.20
64939;DHT22;51453;47.738;7.420;2022-08-04T13:52:00;36.00;51.40
64939;DHT22;51453;47.738;7.420;2022-08-04T13:54:39;36.00;52.70
64939;DHT22;51453;47.738;7.420;2022-08-04T13:57:14;36.50;50.70
64939;DHT22;51453;47.738;7.420;2022-08-04T13:59:43;36.40;52.30
64939;DHT22;51453;47.738;7.420;2022-08-04T14:02:29;36.80;51.30
64939;DHT22;51453;47.738;7.420;2022-08-04T14:05:00;37.10;50.10
64939;DHT22;51453;47.738;7.420;2022-08-04T14:07:30;37.00;49.80
64939;DHT22;51453;47.738;7.420;2022-08-04T14:09:57;37.00;49.90
64939;DHT22;51453;47.738;7.420;2022-08-04T14:12:23;36.90;49.40
64939;DHT22;51453;47.738;7.420;2022-08-04T14:14:51;36.70;52.20
64939;DHT22;51453;47.738;7.420;2022-08-04T14:17:26;36.60;52.10
64939;DHT22;51453;47.738;7.420;2022-08-04T14:19:53;36.40;51.60
64939;DHT22;51453;47.738;7.420;2022-08-04T14:25:07;36.20;53.50
64939;DHT22;51453;47.738;7.420;2022-08-04T14:30:09;36.30;54.50
64939;DHT22;51453;47.738;7.420;2022-08-04T14:33:13;36.40;53.50
64939;DHT22;51453;47.738;7.420;2022-08-04T14:35:39;36.40;50.50
64939;DHT22;51453;47.738;7.420;2022-08-04T14:38:09;36.60;49.50
64939;DHT22;51453;47.738;7.420;2022-08-04T14:40:40;36.70;50.90
64939;DHT22;51453;47.738;7.420;2022-08-04T14:43:07;36.80;50.00
64939;DHT22;51453;47.738;7.420;2022-08-04T14:45:38;36.80;52.10
64939;DHT22;51453;47.738;7.420;2022-08-04T14:48:09;36.80;49.70
64939;DHT22;51453;47.738;7.420;2022-08-04T14:50:38;36.60;52.00
64939;DHT22;51453;47.738;7.420;2022-08-04T14:53:10;36.40;52.20
64939;DHT22;51453;47.738;7.420;2022-08-04T14:55:39;36.20;51.70
64939;DHT22;51453;47.738;7.420;2022-08-04T14:58:05;36.20;51.60
64939;DHT22;51453;47.738;7.420;2022-08-04T15:00:34;36.30;50.90
64939;DHT22;51453;47.738;7.420;2022-08-04T15:03:08;36.30;52.50
64939;DHT22;51453;47.738;7.420;2022-08-04T15:05:40;36.30;52.70
64939;DHT22;51453;47.738;7.420;2022-08-04T15:08:06;36.40;51.10
64939;DHT22;51453;47.738;7.420;2022-08-04T15:10:32;36.40;53.70
64939;DHT22;51453;47.738;7.420;2022-08-04T15:13:01;36.30;53.80
64939;DHT22;51453;47.738;7.420;2022-08-04T15:15:28;36.40;51.90
64939;DHT22;51453;47.738;7.420;2022-08-04T15:17:54;36.40;53.10
64939;DHT22;51453;47.738;7.420;2022-08-04T15:20:21;36.40;53.30
64939;DHT22;51453;47.738;7.420;2022-08-04T15:22:46;36.30;50.60
64939;DHT22;51453;47.738;7.420;2022-08-04T15:25:14;36.20;53.50
64939;DHT22;51453;47.738;7.420;2022-08-04T15:27:41;36.20;52.70
64939;DHT22;51453;47.738;7.420;2022-08-04T15:30:10;36.10;52.20
64939;DHT22;51453;47.738;7.420;2022-08-04T15:32:58;36.20;52.30
64939;DHT22;51453;47.738;7.420;2022-08-04T15:35:26;36.30;51.90
64939;DHT22;51453;47.738;7.420;2022-08-04T15:40:35;36.40;53.40
64939;DHT22;51453;47.738;7.420;2022-08-04T15:45:54;36.50;48.30
64939;DHT22;51453;47.738;7.420;2022-08-04T15:53:22;36.40;52.00
64939;DHT22;51453;47.738;7.420;2022-08-04T15:55:48;36.40;53.10
64939;DHT22;51453;47.738;7.420;2022-08-04T15:58:15;36.40;53.20
64939;DHT22;51453;47.738;7.420;2022-08-04T16:16:32;36.90;50.50
64939;DHT22;51453;47.738;7.420;2022-08-04T16:21:56;36.50;51.70
64939;DHT22;51453;47.738;7.420;2022-08-04T16:24:37;36.30;50.50
64939;DHT22;51453;47.738;7.420;2022-08-04T16:27:08;36.10;50.60
64939;DHT22;51453;47.738;7.420;2022-08-04T16:29:42;35.70;52.20
64939;DHT22;51453;47.738;7.420;2022-08-04T16:32:17;35.30;51.40
64939;DHT22;51453;47.738;7.420;2022-08-04T16:34:57;34.90;53.20
64939;DHT22;51453;47.738;7.420;2022-08-04T16:37:37;34.50;54.20
64939;DHT22;51453;47.738;7.420;2022-08-04T16:40:40;34.10;55.70
64939;DHT22;51453;47.738;7.420;2022-08-04T16:46:02;33.90;54.90
64939;DHT22;51453;47.738;7.420;2022-08-04T16:48:35;33.80;55.20
64939;DHT22;51453;47.738;7.420;2022-08-04T16:51:04;33.80;54.30
64939;DHT22;51453;47.738;7.420;2022-08-04T16:53:47;33.90;54.90
64939;DHT22;51453;47.738;7.420;2022-08-04T16:56:14;34.00;55.00
64939;DHT22;51453;47.738;7.420;2022-08-04T16:58:43;34.20;56.20
64939;DHT22;51453;47.738;7.420;2022-08-04T17:01:11;34.50;56.00
64939;DHT22;51453;47.738;7.420;2022-08-04T17:03:39;34.80;57.60
64939;DHT22;51453;47.738;7.420;2022-08-04T17:06:11;34.90;56.10
64939;DHT22;51453;47.738;7.420;2022-08-04T17:08:38;35.00;57.70
64939;DHT22;51453;47.738;7.420;2022-08-04T17:11:05;35.00;55.90
64939;DHT22;51453;47.738;7.420;2022-08-04T17:13:38;34.90;57.70
64939;DHT22;51453;47.738;7.420;2022-08-04T17:16:06;34.90;55.10
64939;DHT22;51453;47.738;7.420;2022-08-04T17:18:36;34.90;56.10
64939;DHT22;51453;47.738;7.420;2022-08-04T17:21:12;35.00;54.60
64939;DHT22;51453;47.738;7.420;2022-08-04T17:23:40;35.10;56.80
64939;DHT22;51453;47.738;7.420;2022-08-04T17:26:13;35.00;54.20
64939;DHT22;51453;47.738;7.420;2022-08-04T17:28:40;34.80;55.60
64939;DHT22;51453;47.738;7.420;2022-08-04T17:31:09;34.60;55.80
64939;DHT22;51453;47.738;7.420;2022-08-04T17:33:36;34.50;56.20
64939;DHT22;51453;47.738;7.420;2022-08-04T17:36:04;34.20;56.70
64939;DHT22;51453;47.738;7.420;2022-08-04T17:41:04;33.90;56.70
64939;DHT22;51453;47.738;7.420;2022-08-04T17:43:50;34.00;57.60
64939;DHT22;51453;47.738;7.420;2022-08-04T17:54:18;33.80;58.30
64939;DHT22;51453;47.738;7.420;2022-08-04T17:56:49;33.80;59.60
64939;DHT22;51453;47.738;7.420;2022-08-04T17:59:40;33.80;60.10
64939;DHT22;51453;47.738;7.420;2022-08-04T18:02:06;33.80;59.50
64939;DHT22;51453;47.738;7.420;2022-08-04T18:09:41;33.40;61.70
64939;DHT22;51453;47.738;7.420;2022-08-04T18:12:20;33.30;60.60
64939;DHT22;51453;47.738;7.420;2022-08-04T18:14:48;33.40;60.20
64939;DHT22;51453;47.738;7.420;2022-08-04T18:17:28;33.40;60.00
64939;DHT22;51453;47.738;7.420;2022-08-04T18:19:56;33.40;59.10
64939;DHT22;51453;47.738;7.420;2022-08-04T18:22:21;33.40;60.70
64939;DHT22;51453;47.738;7.420;2022-08-04T18:24:47;33.30;61.00
64939;DHT22;51453;47.738;7.420;2022-08-04T18:27:14;33.40;59.80
64939;DHT22;51453;47.738;7.420;2022-08-04T18:29:40;33.40;60.30
64939;DHT22;51453;47.738;7.420;2022-08-04T18:32:07;33.40;60.50
64939;DHT22;51453;47.738;7.420;2022-08-04T18:34:33;33.40;60.80
64939;DHT22;51453;47.738;7.420;2022-08-04T18:36:59;33.30;61.70
64939;DHT22;51453;47.738;7.420;2022-08-04T18:39:25;33.20;63.20
64939;DHT22;51453;47.738;7.420;2022-08-04T18:41:54;33.00;63.00
64939;DHT22;51453;47.738;7.420;2022-08-04T18:44:20;32.80;62.50
64939;DHT22;51453;47.738;7.420;2022-08-04T18:46:46;32.80;63.00
64939;DHT22;51453;47.738;7.420;2022-08-04T18:49:12;32.70;64.00
64939;DHT22;51453;47.738;7.420;2022-08-04T18:51:38;32.60;62.90
64939;DHT22;51453;47.738;7.420;2022-08-04T18:54:04;32.60;63.80
64939;DHT22;51453;47.738;7.420;2022-08-04T18:56:31;32.40;64.30
64939;DHT22;51453;47.738;7.420;2022-08-04T18:58:57;32.30;64.50
64939;DHT22;51453;47.738;7.420;2022-08-04T19:01:23;32.20;63.60
64939;DHT22;51453;47.738;7.420;2022-08-04T19:03:49;32.20;64.30
64939;DHT22;51453;47.738;7.420;2022-08-04T19:06:15;32.20;63.40
64939;DHT22;51453;47.738;7.420;2022-08-04T19:08:41;32.20;63.30
64939;DHT22;51453;47.738;7.420;2022-08-04T19:11:06;32.10;64.10
64939;DHT22;51453;47.738;7.420;2022-08-04T19:13:33;32.00;64.60
64939;DHT22;51453;47.738;7.420;2022-08-04T19:15:58;32.00;64.90
64939;DHT22;51453;47.738;7.420;2022-08-04T19:18:24;31.80;65.30
64939;DHT22;51453;47.738;7.420;2022-08-04T19:20:50;31.70;65.80
64939;DHT22;51453;47.738;7.420;2022-08-04T19:23:18;31.60;65.50
64939;DHT22;51453;47.738;7.420;2022-08-04T19:25:45;31.40;65.30
64939;DHT22;51453;47.738;7.420;2022-08-04T19:28:11;31.40;65.50
64939;DHT22;51453;47.738;7.420;2022-08-04T19:30:37;31.30;65.10
64939;DHT22;51453;47.738;7.420;2022-08-04T19:33:02;31.30;65.00
64939;DHT22;51453;47.738;7.420;2022-08-04T19:35:28;31.30;65.00
64939;DHT22;51453;47.738;7.420;2022-08-04T19:37:54;31.20;65.40
64939;DHT22;51453;47.738;7.420;2022-08-04T19:40:20;31.10;65.20
64939;DHT22;51453;47.738;7.420;2022-08-04T19:42:45;31.10;66.10
64939;DHT22;51453;47.738;7.420;2022-08-04T19:45:11;31.00;66.40
64939;DHT22;51453;47.738;7.420;2022-08-04T19:47:37;30.80;67.90
64939;DHT22;51453;47.738;7.420;2022-08-04T19:50:04;30.60;68.20
64939;DHT22;51453;47.738;7.420;2022-08-04T19:52:31;30.40;68.70
64939;DHT22;51453;47.738;7.420;2022-08-04T19:54:56;30.20;69.00
64939;DHT22;51453;47.738;7.420;2022-08-04T19:57:22;30.10;69.70
64939;DHT22;51453;47.738;7.420;2022-08-04T19:59:48;30.00;68.80
64939;DHT22;51453;47.738;7.420;2022-08-04T20:02:13;30.00;69.70
64939;DHT22;51453;47.738;7.420;2022-08-04T20:04:39;30.00;69.80
64939;DHT22;51453;47.738;7.420;2022-08-04T20:07:05;29.90;70.00
64939;DHT22;51453;47.738;7.420;2022-08-04T20:09:30;29.90;69.80
64939;DHT22;51453;47.738;7.420;2022-08-04T20:11:56;29.80;70.80
64939;DHT22;51453;47.738;7.420;2022-08-04T20:14:25;29.80;71.60
64939;DHT22;51453;47.738;7.420;2022-08-04T20:16:52;29.90;70.50
64939;DHT22;51453;47.738;7.420;2022-08-04T20:19:18;29.90;71.00
64939;DHT22;51453;47.738;7.420;2022-08-04T20:21:44;29.90;70.90
64939;DHT22;51453;47.738;7.420;2022-08-04T20:24:09;29.80;72.00
64939;DHT22;51453;47.738;7.420;2022-08-04T20:26:35;29.70;74.20
64939;DHT22;51453;47.738;7.420;2022-08-04T20:29:01;29.60;73.80
64939;DHT22;51453;47.738;7.420;2022-08-04T20:31:27;29.50;75.50
64939;DHT22;51453;47.738;7.420;2022-08-04T20:33:52;29.40;74.90
64939;DHT22;51453;47.738;7.420;2022-08-04T20:36:18;29.30;75.90
64939;DHT22;51453;47.738;7.420;2022-08-04T20:38:44;29.10;76.00
64939;DHT22;51453;47.738;7.420;2022-08-04T20:41:09;29.00;77.20
64939;DHT22;51453;47.738;7.420;2022-08-04T20:43:35;28.80;77.80
64939;DHT22;51453;47.738;7.420;2022-08-04T20:46:01;28.60;77.60